Pentyrch, United Kingdom
Current Conditions -  °F | °C
As of 1:50 PM on Friday 24 Oct 2014 (Local Time) from EGFF Reporting Station
Light Rain Light Rain  
Wind Chill: 57°   Ceiling: 200
Heat Index: 57°   Visibility: 1.8mi
Dew Point: 57°   Wind: 7mph
Humidity: 100%   Direction: 270°W
Pressure: 29.91"   Gusts: NA
Location:  51.53°N, 3.3°W
Report Text: EGFF 241250Z 27006KT 3000 -RADZ BR OVC002 14/14 Q1013
Loading
Personal Weather Stations






























Interactive Weather Map
Tropical Storm Tracking
New forecast layout! Learn more

10-Day Weather Forecast

Advertisements
Track Severe Weather on mobile